Time;durP1;ratioP1;P1;durP2;ratioP2;P2;SDS_P1;SDS_P2;PMS_P1;PMS_P2;Temp;Humidity;BMP_temperature;BMP_pressure;BME280_temperature;BME280_humidity;BME280_pressure;Samples;Min_cycle;Max_cycle;Signal;HPM_P1;HPM_P2
2022/01/29 00:01:36;;;;;;;10.65;5.97;;;103.10;2227.20;;;;;;5034125;28;20026;-71
2022/01/29 00:04:02;;;;;;;10.98;5.68;;;103.10;2227.20;;;;;;5039215;28;20025;-73
2022/01/29 00:06:28;;;;;;;9.77;5.78;;;103.10;2227.20;;;;;;5033867;28;20570;-73
2022/01/29 00:08:56;;;;;;;14.13;6.82;;;103.10;2227.20;;;;;;5033426;28;20176;-72
2022/01/29 00:11:27;;;;;;;11.10;5.88;;;103.10;2227.20;;;;;;5036825;28;20017;-72
2022/01/29 00:13:53;;;;;;;12.85;6.85;;;103.10;2227.20;;;;;;5039495;28;20040;-72
2022/01/29 00:16:19;;;;;;;13.15;5.78;;;103.10;2227.20;;;;;;5033076;28;20368;-71
2022/01/29 00:18:45;;;;;;;11.40;6.63;;;103.10;2227.20;;;;;;5032191;28;20033;-74
2022/01/29 00:21:11;;;;;;;11.77;5.32;;;103.10;2227.20;;;;;;5033458;28;20480;-73
2022/01/29 00:23:37;;;;;;;13.63;4.72;;;103.10;2227.20;;;;;;5033530;28;20053;-73
2022/01/29 00:26:03;;;;;;;12.15;6.00;;;103.00;2227.20;;;;;;5033218;28;20029;-73
2022/01/29 00:28:29;;;;;;;15.98;7.32;;;103.00;2227.20;;;;;;5031950;28;20067;-73
2022/01/29 00:30:56;;;;;;;18.42;7.35;;;103.00;2227.20;;;;;;5033171;28;20013;-73
2022/01/29 00:33:22;;;;;;;9.13;5.75;;;103.00;2227.20;;;;;;5033922;28;20017;-72
2022/01/29 00:35:48;;;;;;;10.90;7.05;;;103.00;2227.20;;;;;;5052644;28;20083;-71
2022/01/29 00:38:13;;;;;;;11.38;6.32;;;103.10;2227.20;;;;;;5052820;28;20515;-72
2022/01/29 00:40:40;;;;;;;11.98;6.53;;;103.10;2227.20;;;;;;5036147;28;20057;-73
2022/01/29 00:43:06;;;;;;;11.80;6.28;;;103.10;2227.20;;;;;;5040846;28;20013;-73
2022/01/29 00:45:32;;;;;;;11.40;6.60;;;103.00;2227.20;;;;;;5031368;28;20526;-73
2022/01/29 00:47:58;;;;;;;13.13;6.18;;;103.10;2227.20;;;;;;5030973;28;20052;-73
2022/01/29 00:50:24;;;;;;;17.23;6.20;;;103.00;2227.20;;;;;;5032399;28;20477;-73
2022/01/29 00:52:50;;;;;;;9.15;5.45;;;103.00;2227.20;;;;;;5042237;28;20029;-74
2022/01/29 00:55:16;;;;;;;14.45;6.32;;;103.00;2227.20;;;;;;5039920;28;20045;-73
2022/01/29 00:57:43;;;;;;;11.27;5.40;;;103.00;2227.20;;;;;;5041047;28;20478;-73
2022/01/29 01:00:11;;;;;;;12.50;5.05;;;103.00;2227.20;;;;;;5042044;28;20090;-74
2022/01/29 01:02:37;;;;;;;10.68;4.97;;;103.00;2227.20;;;;;;5042937;28;20057;-73
2022/01/29 01:05:04;;;;;;;11.88;6.00;;;103.00;2227.20;;;;;;5043145;28;20418;-74
2022/01/29 01:07:30;;;;;;;15.45;7.22;;;103.00;2227.20;;;;;;5037618;28;20029;-72
2022/01/29 01:09:56;;;;;;;10.73;5.10;;;103.00;2227.20;;;;;;5037316;28;20021;-73
2022/01/29 01:27:58;;;;;;;11.23;5.43;;;102.80;2227.20;;;;;;6044221;22;20803;-80
2022/01/29 01:30:24;;;;;;;14.15;5.25;;;102.80;2227.20;;;;;;5009773;28;20034;-78
2022/01/29 01:32:50;;;;;;;15.57;6.80;;;102.70;2227.20;;;;;;5010053;28;20092;-81
2022/01/29 01:35:38;;;;;;;8.45;4.47;;;102.80;2227.20;;;;;;5011273;28;20029;-82
2022/01/29 01:40:53;;;;;;;11.27;5.70;;;102.80;2227.20;;;;;;5012490;28;20084;-80
2022/01/29 01:43:19;;;;;;;10.65;4.88;;;102.80;2227.20;;;;;;5009997;28;20022;-81
2022/01/29 01:45:45;;;;;;;14.98;5.03;;;102.70;2227.20;;;;;;5012246;28;20080;-82
2022/01/29 01:48:11;;;;;;;12.23;4.45;;;102.70;2227.20;;;;;;5012028;28;20539;-83
2022/01/29 01:50:37;;;;;;;15.13;5.47;;;102.70;2227.20;;;;;;5010703;28;20076;-82
2022/01/29 01:53:04;;;;;;;17.70;5.40;;;102.70;2227.20;;;;;;5011806;28;20036;-81
2022/01/29 01:55:31;;;;;;;10.63;5.20;;;102.70;2227.20;;;;;;5011883;28;20048;-82
2022/01/29 01:57:57;;;;;;;14.10;6.25;;;102.70;2227.20;;;;;;5010592;28;20069;-82
2022/01/29 02:00:24;;;;;;;10.70;5.32;;;102.70;2227.20;;;;;;5010746;28;20477;-82
2022/01/29 02:02:50;;;;;;;10.25;4.82;;;102.70;2227.20;;;;;;5010994;28;20108;-81
2022/01/29 02:05:16;;;;;;;12.85;4.90;;;102.60;2227.20;;;;;;5010193;28;20137;-80
2022/01/29 02:07:43;;;;;;;13.27;5.13;;;102.60;2227.20;;;;;;5011032;28;20125;-82
2022/01/29 02:10:11;;;;;;;10.43;5.25;;;102.60;2227.20;;;;;;5010143;28;20815;-80
2022/01/29 02:12:52;;;;;;;7.72;4.55;;;102.60;2227.20;;;;;;5011157;28;20557;-81
2022/01/29 02:15:20;;;;;;;9.73;5.13;;;102.60;2227.20;;;;;;5010459;28;20397;-81
2022/01/29 02:17:47;;;;;;;11.50;5.10;;;102.50;2227.20;;;;;;5010716;28;20068;-80
2022/01/29 02:20:14;;;;;;;13.50;4.70;;;102.50;2227.20;;;;;;5010498;28;20030;-79
2022/01/29 02:22:42;;;;;;;12.73;5.32;;;102.50;2227.20;;;;;;5010181;28;20076;-79
2022/01/29 02:25:39;;;;;;;12.93;5.38;;;102.50;2227.20;;;;;;5010914;28;20069;-80
2022/01/29 02:28:31;;;;;;;12.18;5.22;;;102.50;2227.20;;;;;;5006090;28;20034;-81
2022/01/29 02:31:02;;;;;;;11.88;5.38;;;102.50;2227.20;;;;;;4988865;28;20448;-81
2022/01/29 02:33:33;;;;;;;12.60;6.18;;;102.50;2227.20;;;;;;4992061;28;20030;-80
2022/01/29 02:35:58;;;;;;;8.75;4.95;;;102.50;2227.20;;;;;;4992846;28;20023;-81
2022/01/29 02:38:26;;;;;;;15.88;5.38;;;102.50;2227.20;;;;;;4990869;28;20410;-81
2022/01/29 02:40:57;;;;;;;13.20;5.18;;;102.50;2227.20;;;;;;5007016;28;20022;-81
2022/01/29 02:43:32;;;;;;;12.88;5.63;;;102.50;2227.20;;;;;;5010216;28;20381;-81
2022/01/29 02:46:05;;;;;;;13.40;5.18;;;102.60;2227.20;;;;;;5011377;28;20029;-82
2022/01/29 02:48:31;;;;;;;11.48;5.57;;;102.60;2227.20;;;;;;5010814;28;20026;-81
2022/01/29 02:50:57;;;;;;;16.48;6.03;;;102.60;2227.20;;;;;;5012237;28;20033;-82
2022/01/29 02:53:22;;;;;;;16.10;5.90;;;102.50;2227.20;;;;;;5015476;28;20022;-81
2022/01/29 02:55:48;;;;;;;14.18;4.30;;;102.50;2227.20;;;;;;5012429;28;20038;-80
2022/01/29 02:58:14;;;;;;;13.15;7.05;;;102.50;2227.20;;;;;;5007515;28;20045;-80
2022/01/29 03:00:40;;;;;;;9.45;4.90;;;102.50;2227.20;;;;;;4995153;28;20030;-79
2022/01/29 03:03:06;;;;;;;13.40;5.78;;;102.50;2227.20;;;;;;4993535;28;20034;-80
2022/01/29 03:05:31;;;;;;;12.38;5.00;;;102.40;2227.20;;;;;;4994058;28;20041;-79
2022/01/29 03:07:57;;;;;;;14.18;5.32;;;102.50;2227.20;;;;;;4994841;28;20032;-80
2022/01/29 03:10:25;;;;;;;10.52;5.93;;;102.40;2227.20;;;;;;4993937;28;20030;-80
2022/01/29 03:12:51;;;;;;;12.52;6.00;;;102.40;2227.20;;;;;;4993308;28;20150;-80
2022/01/29 03:15:17;;;;;;;11.23;5.25;;;102.40;2227.20;;;;;;4995182;28;20473;-80
2022/01/29 03:17:43;;;;;;;12.63;4.75;;;102.40;2227.20;;;;;;4997447;28;20047;-80
2022/01/29 03:20:10;;;;;;;8.90;4.72;;;102.40;2227.20;;;;;;4993506;28;20038;-81
2022/01/29 03:22:36;;;;;;;15.85;5.45;;;102.40;2227.20;;;;;;4994352;28;20134;-80
2022/01/29 03:25:03;;;;;;;11.73;5.95;;;102.40;2227.20;;;;;;4993506;28;20042;-81
2022/01/29 03:27:28;;;;;;;15.93;6.35;;;102.40;2227.20;;;;;;4994608;28;20054;-82
2022/01/29 03:29:54;;;;;;;14.38;6.57;;;102.40;2227.20;;;;;;5009056;28;20077;-80
2022/01/29 03:32:20;;;;;;;11.05;4.93;;;77.70;2227.20;;;;;;4993721;28;20544;-80
2022/01/29 03:34:45;;;;;;;16.10;6.28;;;77.70;2227.20;;;;;;4992438;28;20809;-81
2022/01/29 03:37:11;;;;;;;10.93;6.63;;;77.60;2227.20;;;;;;5005658;28;20428;-82
2022/01/29 03:39:38;;;;;;;11.60;5.18;;;77.60;2227.20;;;;;;5014288;28;20053;-81
2022/01/29 03:42:07;;;;;;;13.40;6.45;;;77.50;2227.20;;;;;;5013126;28;20026;-81
2022/01/29 03:44:33;;;;;;;11.13;6.00;;;77.50;2227.20;;;;;;5012624;28;20026;-81
2022/01/29 03:46:59;;;;;;;13.25;5.80;;;77.40;2227.20;;;;;;5013195;28;20025;-80
2022/01/29 03:49:25;;;;;;;10.32;5.97;;;77.40;2227.20;;;;;;5013735;28;20030;-81
2022/01/29 03:51:51;;;;;;;10.70;5.30;;;77.40;2227.20;;;;;;5014212;28;20133;-80
2022/01/29 03:54:17;;;;;;;11.38;6.50;;;77.40;2227.20;;;;;;5012667;28;20480;-80
2022/01/29 03:56:43;;;;;;;8.98;5.43;;;77.30;2227.20;;;;;;5012315;28;20026;-81
2022/01/29 03:59:08;;;;;;;12.15;7.00;;;77.30;2227.20;;;;;;5012755;28;20030;-80
2022/01/29 04:01:34;;;;;;;14.88;5.78;;;77.30;2227.20;;;;;;5012903;28;20026;-79
2022/01/29 04:04:00;;;;;;;12.85;6.72;;;77.30;2227.20;;;;;;5013852;28;20469;-80
2022/01/29 04:06:26;;;;;;;15.52;5.50;;;77.20;2227.20;;;;;;5013188;28;20084;-80
2022/01/29 04:08:52;;;;;;;10.63;6.65;;;77.20;2227.20;;;;;;5012538;28;20030;-80
2022/01/29 04:11:18;;;;;;;9.95;5.32;;;77.20;2227.20;;;;;;5013252;28;20034;-80
2022/01/29 04:13:46;;;;;;;10.52;5.00;;;77.20;2227.20;;;;;;5011531;28;20038;-80
2022/01/29 04:16:14;;;;;;;11.13;5.43;;;77.20;2227.20;;;;;;5012077;28;20038;-79
2022/01/29 04:18:40;;;;;;;10.48;5.22;;;77.20;2227.20;;;;;;5012957;28;20428;-79
2022/01/29 04:21:07;;;;;;;13.68;5.05;;;77.20;2227.20;;;;;;5004735;28;20054;-79
2022/01/29 04:23:33;;;;;;;12.02;5.13;;;77.20;2227.20;;;;;;4998107;28;20053;-78
2022/01/29 04:26:01;;;;;;;11.50;4.93;;;77.20;2227.20;;;;;;5004394;28;20033;-79
2022/01/29 04:28:31;;;;;;;9.27;4.10;;;77.20;2227.20;;;;;;4999376;28;20085;-78
2022/01/29 04:31:07;;;;;;;9.50;5.22;;;77.20;2227.20;;;;;;5011907;28;20049;-79
2022/01/29 04:33:32;;;;;;;8.63;4.95;;;77.20;2227.20;;;;;;5011405;28;20018;-79
2022/01/29 04:36:04;;;;;;;12.07;4.60;;;77.10;2227.20;;;;;;5011888;28;20380;-79
2022/01/29 04:38:30;;;;;;;12.93;4.20;;;77.10;2227.20;;;;;;5011969;28;20026;-78
2022/01/29 04:40:58;;;;;;;8.52;4.78;;;77.10;2227.20;;;;;;5011220;28;20026;-78
2022/01/29 04:43:24;;;;;;;17.58;4.85;;;77.00;2227.20;;;;;;5008575;28;20030;-78
2022/01/29 04:45:50;;;;;;;12.60;4.05;;;77.00;2227.20;;;;;;4991475;28;20045;-77
2022/01/29 04:48:16;;;;;;;12.25;5.20;;;77.00;2227.20;;;;;;5006603;28;20112;-78
2022/01/29 04:50:42;;;;;;;9.85;4.20;;;77.00;2227.20;;;;;;5012254;28;20044;-78
2022/01/29 04:53:08;;;;;;;8.88;4.13;;;77.00;2227.20;;;;;;5013437;28;20563;-78
2022/01/29 04:55:34;;;;;;;10.82;3.78;;;77.00;2227.20;;;;;;5013215;28;20109;-78
2022/01/29 04:58:00;;;;;;;9.00;3.53;;;77.00;2227.20;;;;;;5012906;28;20366;-79
2022/01/29 05:00:25;;;;;;;7.82;5.05;;;77.10;2227.20;;;;;;5012682;28;20037;-78
2022/01/29 05:02:54;;;;;;;7.75;4.32;;;77.10;2227.20;;;;;;5011728;28;20025;-78
2022/01/29 05:05:21;;;;;;;7.85;3.50;;;77.20;2227.20;;;;;;5012019;28;20026;-78
2022/01/29 05:07:47;;;;;;;9.38;3.67;;;77.20;2227.20;;;;;;5011723;28;20076;-76
2022/01/29 05:10:13;;;;;;;8.15;3.75;;;77.20;2227.20;;;;;;5011758;28;20420;-77
2022/01/29 05:12:52;;;;;;;7.47;4.55;;;77.20;2227.20;;;;;;5012366;28;20053;-78
2022/01/29 05:15:38;;;;;;;5.22;3.40;;;77.20;2227.20;;;;;;5010437;28;20607;-77
2022/01/29 05:29:03;;;;;;;9.15;4.53;;;77.20;2227.20;;;;;;5011342;28;20045;-78
2022/01/29 05:31:29;;;;;;;7.85;4.43;;;77.20;2227.20;;;;;;5010035;28;20036;-78
2022/01/29 05:33:56;;;;;;;7.60;3.72;;;77.20;2227.20;;;;;;5011493;28;20080;-78
2022/01/29 05:36:21;;;;;;;7.78;3.92;;;77.20;2227.20;;;;;;5009913;28;20370;-78
2022/01/29 05:38:47;;;;;;;7.90;2.80;;;77.20;2227.20;;;;;;5012718;28;20029;-77
2022/01/29 05:41:13;;;;;;;7.95;2.55;;;77.20;2227.20;;;;;;5012640;28;20025;-77
2022/01/29 05:43:39;;;;;;;5.55;3.22;;;77.20;2227.20;;;;;;5011398;28;20026;-77
2022/01/29 05:46:05;;;;;;;6.70;3.42;;;77.20;2227.20;;;;;;5012628;28;20518;-77
2022/01/29 05:48:31;;;;;;;6.00;3.65;;;77.20;2227.20;;;;;;5011160;28;20034;-77
2022/01/29 05:50:57;;;;;;;7.57;3.38;;;77.20;2227.20;;;;;;5012678;28;20532;-77
2022/01/29 05:53:23;;;;;;;7.38;3.00;;;77.20;2227.20;;;;;;5011203;28;20113;-78
2022/01/29 05:55:49;;;;;;;4.28;3.03;;;77.20;2227.20;;;;;;5012767;28;20045;-77
2022/01/29 05:58:14;;;;;;;6.78;3.80;;;77.20;2227.20;;;;;;5007574;28;20028;-77
2022/01/29 06:00:40;;;;;;;6.45;3.08;;;77.20;2227.20;;;;;;4997419;28;20033;-79
2022/01/29 06:03:08;;;;;;;7.47;3.80;;;77.20;2227.20;;;;;;5012377;28;20081;-79
2022/01/29 06:05:35;;;;;;;10.48;3.47;;;77.20;2227.20;;;;;;5012801;28;20022;-79
2022/01/29 06:08:01;;;;;;;5.00;3.15;;;77.20;2227.20;;;;;;5010316;28;20034;-79
2022/01/29 06:10:27;;;;;;;10.48;2.67;;;77.20;2227.20;;;;;;5011280;28;20088;-78
2022/01/29 06:13:06;;;;;;;5.55;2.20;;;77.20;2227.20;;;;;;5010998;28;20040;-78
2022/01/29 06:15:34;;;;;;;3.85;2.22;;;77.20;2227.20;;;;;;5012154;28;20118;-78
2022/01/29 06:18:00;;;;;;;6.68;3.05;;;77.30;2227.20;;;;;;5010999;28;20480;-79
2022/01/29 06:20:26;;;;;;;7.70;2.90;;;77.30;2227.20;;;;;;5012255;28;20030;-79
2022/01/29 06:22:52;;;;;;;6.53;3.15;;;77.30;2227.20;;;;;;5010937;28;20072;-78
2022/01/29 06:25:18;;;;;;;7.60;3.28;;;77.20;2227.20;;;;;;5011953;28;20030;-78
2022/01/29 06:27:44;;;;;;;7.35;3.20;;;77.30;2227.20;;;;;;5014730;28;20037;-78
2022/01/29 06:30:10;;;;;;;8.55;3.97;;;77.30;2227.20;;;;;;5013677;28;20053;-78
2022/01/29 06:32:36;;;;;;;9.27;3.95;;;77.30;2227.20;;;;;;5014676;28;20033;-79
2022/01/29 06:35:03;;;;;;;12.02;6.38;;;77.30;2227.20;;;;;;5016040;28;20018;-79
2022/01/29 06:37:28;;;;;;;13.98;5.60;;;77.30;2227.20;;;;;;5014426;28;20030;-78
2022/01/29 06:39:54;;;;;;;13.90;6.07;;;77.30;2227.20;;;;;;5016208;28;20044;-79
2022/01/29 06:42:20;;;;;;;10.32;4.78;;;77.30;2227.20;;;;;;5014476;28;20389;-78
2022/01/29 06:44:45;;;;;;;17.33;8.38;;;77.30;2227.20;;;;;;5014776;28;20575;-78
2022/01/29 06:47:11;;;;;;;16.00;7.45;;;77.30;2227.20;;;;;;5013504;28;20030;-78
2022/01/29 06:49:37;;;;;;;11.82;6.22;;;77.30;2227.20;;;;;;5014584;28;20038;-78
2022/01/29 06:52:03;;;;;;;10.27;5.32;;;77.30;2227.20;;;;;;5015201;28;20026;-78
2022/01/29 06:54:29;;;;;;;10.40;5.07;;;77.30;2227.20;;;;;;5015763;28;20101;-78
2022/01/29 06:56:55;;;;;;;9.88;6.47;;;77.30;2227.20;;;;;;5015525;28;20125;-78
2022/01/29 06:59:21;;;;;;;11.90;7.65;;;77.30;2227.20;;;;;;5000717;28;20057;-79
2022/01/29 07:01:47;;;;;;;17.10;5.68;;;77.30;2227.20;;;;;;5008840;28;20499;-78
2022/01/29 07:04:12;;;;;;;7.38;4.45;;;77.30;2227.20;;;;;;5013026;28;20037;-78
2022/01/29 07:06:38;;;;;;;7.63;4.25;;;77.30;2227.20;;;;;;5015435;28;20117;-78
2022/01/29 07:09:04;;;;;;;8.68;4.80;;;77.20;2227.20;;;;;;5015402;28;20025;-78
2022/01/29 07:11:30;;;;;;;10.57;5.25;;;77.20;2227.20;;;;;;5013798;28;20172;-78
2022/01/29 07:14:03;;;;;;;10.75;5.55;;;77.10;2227.20;;;;;;5012952;28;20110;-78
2022/01/29 07:16:34;;;;;;;9.55;5.38;;;77.10;2227.20;;;;;;5013110;28;20033;-77
2022/01/29 07:19:01;;;;;;;11.07;5.60;;;77.10;2227.20;;;;;;5007312;28;20440;-78
2022/01/29 07:21:27;;;;;;;9.07;5.78;;;77.10;2227.20;;;;;;4994247;28;20117;-78
2022/01/29 07:23:53;;;;;;;13.82;6.28;;;77.20;2227.20;;;;;;5013766;28;20112;-78
2022/01/29 07:26:18;;;;;;;16.00;8.02;;;77.20;2227.20;;;;;;5014680;28;20033;-78
2022/01/29 07:28:44;;;;;;;9.63;5.88;;;77.20;2227.20;;;;;;5009020;28;20038;-78
2022/01/29 07:31:10;;;;;;;10.57;5.43;;;77.20;2227.20;;;;;;5014814;28;20057;-77
2022/01/29 07:33:35;;;;;;;13.90;6.40;;;77.20;2227.20;;;;;;5014355;28;20030;-77
2022/01/29 07:36:02;;;;;;;12.48;6.57;;;77.20;2227.20;;;;;;5010177;28;20473;-79
2022/01/29 07:38:27;;;;;;;11.05;5.40;;;77.20;2227.20;;;;;;5012635;28;20113;-78
2022/01/29 07:40:53;;;;;;;13.00;7.82;;;77.20;2227.20;;;;;;5014699;28;20427;-78
2022/01/29 07:43:19;;;;;;;16.38;8.07;;;77.20;2227.20;;;;;;5013489;28;20092;-78
2022/01/29 07:45:45;;;;;;;19.40;8.05;;;77.30;2227.20;;;;;;5013216;28;20385;-77
2022/01/29 07:48:11;;;;;;;23.08;10.13;;;77.20;2227.20;;;;;;5012900;28;20721;-77
2022/01/29 07:50:37;;;;;;;23.67;10.25;;;77.20;2227.20;;;;;;5014141;28;20096;-78
2022/01/29 07:53:03;;;;;;;21.77;11.13;;;77.20;2227.20;;;;;;5014271;28;20424;-78
2022/01/29 07:55:30;;;;;;;15.32;8.55;;;77.20;2227.20;;;;;;5014131;28;20092;-78
2022/01/29 07:58:07;;;;;;;12.75;6.18;;;77.70;2227.20;;;;;;5008323;28;20445;-80
2022/01/29 08:00:33;;;;;;;10.90;5.55;;;77.30;2227.20;;;;;;5011782;28;20028;-78
2022/01/29 08:03:00;;;;;;;9.25;4.93;;;77.30;2227.20;;;;;;5011149;28;20445;-78
2022/01/29 08:05:26;;;;;;;8.80;6.03;;;77.20;2227.20;;;;;;5012698;28;20014;-77
2022/01/29 08:07:51;;;;;;;11.80;5.72;;;77.30;2227.20;;;;;;5010185;28;20064;-81
2022/01/29 08:10:17;;;;;;;8.93;4.82;;;77.30;2227.20;;;;;;5012319;28;20064;-78
2022/01/29 08:12:43;;;;;;;13.00;5.97;;;77.30;2227.20;;;;;;5010880;28;20120;-80
2022/01/29 08:15:09;;;;;;;19.48;6.82;;;77.30;2227.20;;;;;;5011451;28;20054;-78
2022/01/29 08:17:35;;;;;;;9.82;5.25;;;77.30;2227.20;;;;;;5013685;28;20052;-81
2022/01/29 08:20:01;;;;;;;13.00;8.02;;;77.30;2227.20;;;;;;5016192;28;20843;-80
2022/01/29 08:22:27;;;;;;;14.25;7.45;;;77.30;2227.20;;;;;;5011113;28;20026;-81
2022/01/29 08:24:53;;;;;;;18.67;8.23;;;77.30;2227.20;;;;;;5011785;28;20171;-81
2022/01/29 08:27:19;;;;;;;19.38;9.00;;;77.40;2227.20;;;;;;5013801;28;20022;-81
2022/01/29 08:29:45;;;;;;;17.05;8.73;;;77.40;2227.20;;;;;;5011901;28;20048;-82
2022/01/29 08:32:11;;;;;;;17.45;10.70;;;77.40;2227.20;;;;;;5013713;28;20026;-81
2022/01/29 08:34:39;;;;;;;10.15;7.68;;;77.40;2227.20;;;;;;5012677;28;20453;-82
2022/01/29 08:37:05;;;;;;;20.23;10.35;;;77.40;2227.20;;;;;;5011854;28;20026;-82
2022/01/29 08:39:31;;;;;;;23.77;11.27;;;77.50;2227.20;;;;;;5013706;28;20045;-80
2022/01/29 08:41:57;;;;;;;19.45;11.25;;;77.50;2227.20;;;;;;5013697;28;20022;-81
2022/01/29 08:44:24;;;;;;;24.13;10.38;;;77.60;2227.20;;;;;;5011499;28;20108;-75
2022/01/29 08:46:49;;;;;;;21.55;11.68;;;77.70;2227.20;;;;;;5011371;28;20057;-82
2022/01/29 08:49:15;;;;;;;20.17;10.27;;;77.70;2227.20;;;;;;5013909;28;20038;-82
2022/01/29 08:51:41;;;;;;;23.30;10.10;;;77.70;2227.20;;;;;;5012493;28;20099;-83
2022/01/29 08:54:07;;;;;;;22.63;10.63;;;77.70;2227.20;;;;;;5010921;28;20362;-82
2022/01/29 08:56:33;;;;;;;26.75;11.15;;;102.40;2227.20;;;;;;5010826;28;20060;-82
2022/01/29 08:58:58;;;;;;;25.13;13.52;;;102.50;2227.20;;;;;;5011755;28;20030;-82
2022/01/29 09:01:24;;;;;;;27.42;13.55;;;102.50;2227.20;;;;;;5012007;28;20030;-83
2022/01/29 09:03:50;;;;;;;18.75;9.60;;;102.70;2227.20;;;;;;5010097;28;20472;-82
2022/01/29 09:06:16;;;;;;;16.15;9.98;;;102.70;2227.20;;;;;;5010417;28;20476;-83
2022/01/29 09:08:46;;;;;;;18.45;9.52;;;102.70;2227.20;;;;;;5010599;28;20120;-83
2022/01/29 09:11:14;;;;;;;18.70;9.38;;;102.70;2227.20;;;;;;5010865;28;20102;-83
2022/01/29 09:13:40;;;;;;;16.30;7.63;;;102.70;2227.20;;;;;;5010558;28;20029;-83
2022/01/29 09:16:05;;;;;;;14.82;8.30;;;102.80;2227.20;;;;;;5010262;28;20547;-83
2022/01/29 09:18:31;;;;;;;17.98;8.48;;;102.80;2227.20;;;;;;5004328;28;20034;-83
2022/01/29 09:20:57;;;;;;;17.83;12.02;;;102.80;2227.20;;;;;;4991830;28;20076;-82
2022/01/29 09:23:23;;;;;;;19.25;10.07;;;102.80;2227.20;;;;;;4990672;28;20058;-81
2022/01/29 09:25:49;;;;;;;20.38;9.80;;;103.00;2227.20;;;;;;4992010;28;20133;-82
2022/01/29 09:28:15;;;;;;;17.80;9.45;;;103.10;2227.20;;;;;;4991902;28;20121;-82
2022/01/29 09:30:43;;;;;;;21.92;9.55;;;103.10;2227.20;;;;;;4990127;28;20045;-82
2022/01/29 09:33:08;;;;;;;15.25;7.95;;;103.20;2227.20;;;;;;4990512;28;20034;-82
2022/01/29 09:35:34;;;;;;;17.83;7.57;;;128.00;2252.80;;;;;;4991071;28;20140;-83
2022/01/29 09:38:00;;;;;;;16.85;7.13;;;128.00;2252.80;;;;;;5001453;28;20045;-82
2022/01/29 09:40:26;;;;;;;13.52;7.15;;;128.00;2252.80;;;;;;5009910;28;20090;-82
2022/01/29 09:42:52;;;;;;;16.98;7.72;;;128.10;2252.80;;;;;;5000848;28;20028;-83
2022/01/29 09:45:21;;;;;;;19.30;9.38;;;128.20;2252.80;;;;;;4998971;28;20022;-83
2022/01/29 09:47:48;;;;;;;20.40;9.70;;;128.90;2252.80;;;;;;5002472;28;20084;-82
2022/01/29 09:50:16;;;;;;;12.77;6.45;;;154.10;2252.80;;;;;;4999718;28;20026;-82
2022/01/29 09:52:43;;;;;;;11.88;6.30;;;154.30;2252.80;;;;;;5002345;28;20101;-81
2022/01/29 09:55:09;;;;;;;10.25;5.65;;;179.30;2252.80;;;;;;5000939;28;20484;-82
2022/01/29 09:57:35;;;;;;;16.70;6.97;;;179.60;2252.80;;;;;;4998277;28;20072;-81
2022/01/29 10:00:03;;;;;;;17.00;8.68;;;179.90;2252.80;;;;;;5000027;28;20122;-82
2022/01/29 10:02:29;;;;;;;18.40;8.13;;;179.80;2252.80;;;;;;5000209;28;20408;-81
2022/01/29 10:04:56;;;;;;;10.82;7.43;;;205.00;2252.80;;;;;;4999321;28;20046;-80
2022/01/29 10:07:25;;;;;;;17.95;8.05;;;205.00;2252.80;;;;;;5005215;28;20037;-81
2022/01/29 10:09:51;;;;;;;19.75;8.15;;;180.10;2252.80;;;;;;4999398;28;20026;-81
2022/01/29 10:12:20;;;;;;;15.88;8.70;;;180.00;2252.80;;;;;;4999016;28;20037;-81
2022/01/29 10:14:54;;;;;;;15.63;8.73;;;205.10;2252.80;;;;;;5001702;28;20030;-80
2022/01/29 10:17:39;;;;;;;20.88;10.45;;;230.40;2252.80;;;;;;5003186;28;20053;-80
2022/01/29 10:20:08;;;;;;;33.20;14.88;;;230.40;2252.80;;;;;;5003929;28;20033;-80
2022/01/29 10:22:34;;;;;;;16.13;9.10;;;205.30;2252.80;;;;;;4997823;28;20014;-79
2022/01/29 10:25:04;;;;;;;27.48;12.25;;;205.10;2252.80;;;;;;5003454;28;20080;-80
2022/01/29 10:27:30;;;;;;;23.20;11.45;;;204.90;2252.80;;;;;;5008946;28;20026;-80
2022/01/29 10:30:00;;;;;;;19.08;9.88;;;204.80;2252.80;;;;;;4997977;28;20136;-81
2022/01/29 10:32:27;;;;;;;20.38;10.95;;;179.60;2252.80;;;;;;5003100;28;20034;-80
2022/01/29 10:34:58;;;;;;;19.73;10.68;;;179.60;2252.80;;;;;;5010559;28;20033;-81
2022/01/29 10:37:25;;;;;;;18.40;9.05;;;179.20;2252.80;;;;;;5008949;28;20492;-81
2022/01/29 10:39:55;;;;;;;13.57;8.90;;;179.30;2252.80;;;;;;5008643;28;20515;-81
2022/01/29 10:42:35;;;;;;;26.05;14.25;;;179.30;2252.80;;;;;;5010381;28;20022;-81
2022/01/29 10:45:04;;;;;;;13.88;8.60;;;179.20;2252.80;;;;;;5009839;28;20045;-81
2022/01/29 10:47:51;;;;;;;28.55;11.90;;;179.30;2252.80;;;;;;5008547;28;20053;-77
2022/01/29 10:50:17;;;;;;;18.95;9.05;;;179.70;2252.80;;;;;;5006235;28;20022;-76
2022/01/29 10:52:42;;;;;;;20.48;11.23;;;179.40;2252.80;;;;;;5009061;28;20034;-81
2022/01/29 10:55:09;;;;;;;26.63;13.13;;;154.50;2252.80;;;;;;5011804;28;20030;-79
2022/01/29 10:57:40;;;;;;;18.88;8.93;;;154.20;2252.80;;;;;;5009712;28;20026;-77
2022/01/29 11:00:08;;;;;;;20.30;11.15;;;154.30;2252.80;;;;;;5010584;28;20038;-77
2022/01/29 11:02:34;;;;;;;26.92;13.52;;;154.50;2252.80;;;;;;5010495;28;20030;-78
2022/01/29 11:05:02;;;;;;;23.55;10.02;;;180.10;2252.80;;;;;;5024641;28;20026;-77
2022/01/29 11:07:30;;;;;;;30.13;12.93;;;205.50;2252.80;;;;;;5011377;28;20381;-77
2022/01/29 11:09:58;;;;;;;14.88;8.88;;;230.80;2252.80;;;;;;5011180;28;20026;-78
2022/01/29 11:12:26;;;;;;;19.17;9.23;;;256.10;2252.80;;;;;;5008588;28;20030;-79
2022/01/29 11:14:55;;;;;;;14.77;7.32;;;256.20;2252.80;;;;;;5012685;28;20492;-81
2022/01/29 11:17:23;;;;;;;29.05;14.52;;;256.50;2252.80;;;;;;5013852;28;20022;-80
2022/01/29 11:19:49;;;;;;;16.20;8.32;;;256.80;2252.80;;;;;;5012730;28;20030;-81
2022/01/29 11:22:24;;;;;;;15.68;7.85;;;281.70;2176.00;;;;;;5014284;28;20030;-81
2022/01/29 11:24:57;;;;;;;16.70;7.82;;;281.80;2176.00;;;;;;5012527;28;20084;-81
2022/01/29 11:27:29;;;;;;;16.55;7.80;;;282.40;1996.80;;;;;;5010604;28;20026;-81
2022/01/29 11:30:00;;;;;;;22.88;9.88;;;307.30;2022.40;;;;;;5013509;28;20053;-80
2022/01/29 11:32:28;;;;;;;22.17;11.55;;;307.90;1945.60;;;;;;5011557;28;20050;-82
2022/01/29 11:35:20;;;;;;;16.45;9.27;;;307.80;1868.80;;;;;;5025712;28;20128;-82
2022/01/29 11:37:48;;;;;;;12.20;7.07;;;307.30;1894.40;;;;;;5012179;28;20038;-81
2022/01/29 11:40:35;;;;;;;13.43;7.53;;;282.30;1945.60;;;;;;5004172;28;20031;-80
2022/01/29 11:43:08;;;;;;;16.05;7.82;;;307.60;1894.40;;;;;;5010878;28;20034;-80
2022/01/29 11:46:15;;;;;;;18.50;11.18;;;307.70;1920.00;;;;;;5012255;28;20030;-80
2022/01/29 11:48:52;;;;;;;12.80;7.03;;;307.20;1920.00;;;;;;5009745;28;20056;-79
2022/01/29 11:51:40;;;;;;;12.95;7.00;;;307.90;1766.40;;;;;;5013508;28;20268;-81
2022/01/29 11:54:08;;;;;;;27.23;9.10;;;281.80;1945.60;;;;;;5012444;28;20030;-81
2022/01/29 11:56:39;;;;;;;15.05;8.45;;;307.30;1868.80;;;;;;5012026;28;20018;-80
2022/01/29 11:59:20;;;;;;;14.32;7.65;;;307.70;1843.20;;;;;;5013592;28;20084;-79
2022/01/29 12:01:46;;;;;;;15.65;7.72;;;307.90;1792.00;;;;;;5025720;28;20034;-80
2022/01/29 12:04:12;;;;;;;13.88;6.95;;;332.80;1740.80;;;;;;5014013;28;20025;-80
2022/01/29 12:07:08;;;;;;;15.07;6.90;;;332.80;1792.00;;;;;;5012812;28;20076;-80
2022/01/29 12:09:44;;;;;;;14.25;7.72;;;307.80;1766.40;;;;;;5010364;28;20784;-80
2022/01/29 12:12:24;;;;;;;13.30;7.05;;;333.00;1740.80;;;;;;5006946;28;20121;-79
2022/01/29 12:15:11;;;;;;;16.52;7.45;;;333.30;1715.20;;;;;;5009640;28;20072;-81
2022/01/29 12:17:58;;;;;;;12.35;7.32;;;333.70;1689.60;;;;;;5004462;28;20432;-80
2022/01/29 12:20:26;;;;;;;18.88;12.32;;;333.30;1689.60;;;;;;5013342;28;20468;-80
2022/01/29 12:22:57;;;;;;;11.77;7.93;;;333.20;1638.40;;;;;;5011756;28;20026;-80
2022/01/29 12:25:28;;;;;;;13.00;7.95;;;308.00;1638.40;;;;;;5007060;28;20026;-80
2022/01/29 12:28:03;;;;;;;11.60;7.65;;;333.30;1612.80;;;;;;5013365;28;20044;-81
2022/01/29 12:30:31;;;;;;;13.80;8.00;;;333.70;1612.80;;;;;;5012136;28;20038;-80
2022/01/29 12:33:02;;;;;;;15.05;6.90;;;333.50;1638.40;;;;;;5013575;28;20476;-80
2022/01/29 12:35:39;;;;;;;11.27;6.68;;;333.60;1612.80;;;;;;5012435;28;20543;-81
2022/01/29 12:38:07;;;;;;;19.25;9.35;;;333.70;1612.80;;;;;;5009185;28;20113;-81
2022/01/29 12:40:38;;;;;;;20.58;11.90;;;358.60;1587.20;;;;;;5009849;28;20021;-80
2022/01/29 12:43:26;;;;;;;13.20;8.65;;;332.80;1638.40;;;;;;5012542;28;20503;-83
2022/01/29 12:45:54;;;;;;;48.30;26.80;;;307.70;1664.00;;;;;;5025353;28;20481;-83
2022/01/29 12:48:20;;;;;;;32.22;17.55;;;307.60;1689.60;;;;;;5026275;28;20033;-83